Mc Cabe, Montana
Current Conditions -  °F | °C
As of 8:53 PM on Tuesday 27 Jan 2015 (Local Time) from KOLF Reporting Station
Clear Clear  
Wind Chill: 32°   Ceiling: Unl
Heat Index: 32°   Visibility: 10mi
Dew Point: 30°   Wind: 0mph
Humidity: 92%   Direction: NA
Pressure: 29.78"   Gusts: NA
Location:  48.2801°N, 104.9441°W
Report Text: KOLF 280353Z AUTO 00000KT 10SM CLR 00/M01 A2978 RMK AO2 SLP105 T00001011
Loading
Personal Weather Stations






























Interactive Weather Map New forecast layout! Learn more

10-Day Weather Forecast

Advertisements
Track Severe Weather on mobile